Alveringem, Belgium
Current Conditions -  °F | °C
As of 9:25 AM on Thursday 23 Oct 2014 (Local Time) from EBFN Reporting Station
Broken Clouds Broken Clouds  
Wind Chill: 52°   Ceiling: 3500
Heat Index: 52°   Visibility: 6mi
Dew Point: 48°   Wind: 5mph
Humidity: 88%   Direction: 210°SSW
Pressure: 30.21"   Gusts: NA
Location:  51.01°N, 2.71°E
Report Text: EBFN 230725Z 21004KT 9999 FEW027 BKN035 11/09 Q1023 BLU BLU
Loading
Personal Weather Stations






























Interactive Weather Map
Tropical Storm Tracking
New forecast layout! Learn more

10-Day Weather Forecast

Advertisements
Track Severe Weather on mobile